Time;durP1;ratioP1;P1;durP2;ratioP2;P2;SDS_P1;SDS_P2;PMS_P1;PMS_P2;Temp;Humidity;BMP_temperature;BMP_pressure;BME280_temperature;BME280_humidity;BME280_pressure;Samples;Min_cycle;Max_cycle;Signal;HPM_P1;HPM_P2
2022/01/07 00:01:53;;;;;;;20.63;8.35;;;2.90;99.90;;;;;;5007555;28;20034;-73
2022/01/07 00:04:18;;;;;;;19.17;7.13;;;2.90;99.90;;;;;;5007397;28;20039;-73
2022/01/07 00:06:44;;;;;;;24.30;6.65;;;2.90;99.90;;;;;;5007266;28;20041;-73
2022/01/07 00:09:10;;;;;;;21.27;8.38;;;2.90;99.90;;;;;;5006832;28;20033;-73
2022/01/07 00:11:36;;;;;;;25.55;7.15;;;2.90;99.90;;;;;;5007464;28;20103;-74
2022/01/07 00:14:02;;;;;;;22.75;8.23;;;2.90;99.90;;;;;;5006986;28;20062;-72
2022/01/07 00:16:28;;;;;;;19.50;6.90;;;2.90;99.90;;;;;;5006972;28;20027;-74
2022/01/07 00:18:53;;;;;;;19.75;6.40;;;2.90;99.90;;;;;;5005697;28;20490;-70
2022/01/07 00:21:20;;;;;;;21.75;8.07;;;2.90;99.90;;;;;;5006948;28;20022;-72
2022/01/07 00:23:46;;;;;;;24.75;7.45;;;2.90;99.90;;;;;;5007087;28;20048;-72
2022/01/07 00:26:12;;;;;;;19.65;7.05;;;2.90;99.90;;;;;;5006976;28;20105;-73
2022/01/07 00:28:37;;;;;;;15.00;5.07;;;2.90;99.90;;;;;;5006398;28;20026;-73
2022/01/07 00:31:03;;;;;;;20.58;6.57;;;2.90;99.90;;;;;;5005679;28;20031;-72
2022/01/07 00:33:29;;;;;;;22.33;7.18;;;2.80;99.90;;;;;;5006773;28;20057;-72
2022/01/07 00:35:56;;;;;;;17.55;6.78;;;2.80;99.90;;;;;;5006839;28;20031;-72
2022/01/07 00:38:22;;;;;;;14.02;6.93;;;2.80;99.90;;;;;;5006910;28;20022;-73
2022/01/07 00:40:48;;;;;;;25.05;8.35;;;2.80;99.90;;;;;;5005359;28;20216;-72
2022/01/07 00:43:14;;;;;;;22.83;8.52;;;2.90;99.90;;;;;;5006576;28;20034;-73
2022/01/07 00:45:40;;;;;;;15.38;6.57;;;2.90;99.90;;;;;;5006630;28;20030;-73
2022/01/07 00:48:06;;;;;;;19.52;7.88;;;2.80;99.90;;;;;;5005063;28;20030;-73
2022/01/07 00:50:36;;;;;;;15.15;6.00;;;2.80;99.90;;;;;;5005355;28;20050;-73
2022/01/07 00:53:01;;;;;;;19.70;6.78;;;2.80;99.90;;;;;;5006934;28;20022;-73
2022/01/07 00:55:27;;;;;;;17.83;6.43;;;2.80;99.90;;;;;;5006136;28;20045;-73
2022/01/07 00:57:54;;;;;;;31.63;7.93;;;2.80;99.90;;;;;;5006176;28;20029;-72
2022/01/07 01:00:23;;;;;;;16.20;6.75;;;2.80;99.90;;;;;;5008604;28;20443;-72
2022/01/07 01:02:49;;;;;;;21.50;8.27;;;2.80;99.90;;;;;;5013935;28;20038;-71
2022/01/07 01:05:16;;;;;;;21.55;8.40;;;2.80;99.90;;;;;;5026050;28;20082;-73
2022/01/07 01:07:43;;;;;;;19.63;6.07;;;2.80;99.90;;;;;;5018160;28;20042;-73
2022/01/07 01:10:11;;;;;;;20.30;7.50;;;2.80;99.90;;;;;;5005852;28;20041;-73
2022/01/07 01:12:39;;;;;;;14.93;6.85;;;2.80;99.90;;;;;;5006558;28;20037;-72
2022/01/07 01:15:07;;;;;;;16.67;5.05;;;2.80;99.90;;;;;;5006273;28;20109;-71
2022/01/07 01:17:32;;;;;;;22.67;8.75;;;2.80;99.90;;;;;;5004587;28;20050;-74
2022/01/07 01:19:58;;;;;;;38.25;9.13;;;2.80;99.90;;;;;;5006257;28;20041;-74
2022/01/07 01:22:24;;;;;;;17.70;5.50;;;2.80;99.90;;;;;;5005213;28;20086;-72
2022/01/07 01:24:49;;;;;;;27.40;8.15;;;2.80;99.90;;;;;;5005900;28;20098;-72
2022/01/07 01:27:15;;;;;;;15.73;6.63;;;2.70;99.90;;;;;;5005623;28;20027;-73
2022/01/07 01:29:41;;;;;;;13.57;6.07;;;2.80;99.90;;;;;;5005564;28;20038;-73
2022/01/07 01:32:07;;;;;;;18.92;5.88;;;2.70;99.90;;;;;;5004877;28;20118;-74
2022/01/07 01:34:32;;;;;;;19.00;7.05;;;2.80;99.90;;;;;;5009447;28;20030;-74
2022/01/07 01:36:58;;;;;;;18.23;7.05;;;2.80;99.90;;;;;;5025006;28;20034;-73
2022/01/07 01:39:27;;;;;;;21.80;7.38;;;2.80;99.90;;;;;;5024923;28;20406;-73
2022/01/07 01:41:52;;;;;;;17.10;7.15;;;2.80;99.90;;;;;;5024772;28;20021;-72
2022/01/07 01:44:18;;;;;;;17.10;7.05;;;2.80;99.90;;;;;;5023269;28;20127;-74
2022/01/07 01:46:44;;;;;;;11.18;5.25;;;2.80;99.90;;;;;;5024834;28;20022;-73
2022/01/07 01:49:10;;;;;;;17.25;5.50;;;2.70;99.90;;;;;;5025449;28;20034;-74
2022/01/07 01:51:37;;;;;;;16.52;6.32;;;2.70;99.90;;;;;;5025147;28;20046;-72
2022/01/07 01:54:04;;;;;;;11.23;5.43;;;2.70;99.90;;;;;;5016256;28;20161;-70
2022/01/07 01:56:30;;;;;;;18.15;5.70;;;2.70;99.90;;;;;;5003758;28;20030;-73
2022/01/07 01:58:55;;;;;;;12.77;6.90;;;2.70;99.90;;;;;;5017475;28;20036;-71
2022/01/07 02:01:21;;;;;;;11.27;5.63;;;2.70;99.90;;;;;;5025267;28;20090;-73
2022/01/07 02:03:47;;;;;;;18.23;6.80;;;2.70;99.90;;;;;;5024556;28;20042;-72
2022/01/07 02:06:16;;;;;;;17.77;4.75;;;2.70;99.90;;;;;;5024660;28;20030;-71
2022/01/07 02:08:43;;;;;;;17.30;4.93;;;2.70;99.90;;;;;;5023771;28;20026;-71
2022/01/07 02:11:09;;;;;;;13.68;5.22;;;2.70;99.90;;;;;;5015371;28;20074;-70
2022/01/07 02:13:35;;;;;;;19.77;6.60;;;2.70;99.90;;;;;;5004116;28;20030;-70
2022/01/07 02:16:00;;;;;;;12.30;6.43;;;2.60;99.90;;;;;;5006268;28;20034;-71
2022/01/07 02:18:26;;;;;;;17.23;6.15;;;2.60;99.90;;;;;;5038312;28;20379;-70
2022/01/07 02:20:51;;;;;;;19.95;5.78;;;2.60;99.90;;;;;;5019932;28;20030;-71
2022/01/07 02:23:18;;;;;;;48.80;5.45;;;2.60;99.90;;;;;;5003556;28;20045;-71
2022/01/07 02:25:45;;;;;;;16.48;5.57;;;2.60;99.90;;;;;;5018112;28;20061;-72
2022/01/07 02:28:12;;;;;;;15.13;4.75;;;2.60;99.90;;;;;;5024706;28;20024;-73
2022/01/07 02:30:38;;;;;;;8.98;4.32;;;2.70;99.90;;;;;;5024771;28;20033;-72
2022/01/07 02:33:04;;;;;;;17.45;6.72;;;2.60;99.90;;;;;;5024518;28;20030;-70
2022/01/07 02:35:32;;;;;;;12.85;5.40;;;2.70;99.90;;;;;;5028497;28;20102;-71
2022/01/07 02:37:58;;;;;;;13.07;4.50;;;2.70;99.90;;;;;;5028456;28;20030;-70
2022/01/07 02:40:24;;;;;;;13.75;3.80;;;2.70;99.90;;;;;;5028091;28;20080;-72
2022/01/07 02:42:50;;;;;;;17.48;4.75;;;2.70;99.90;;;;;;5026409;28;20030;-70
2022/01/07 02:45:15;;;;;;;13.10;5.10;;;2.80;99.90;;;;;;5007232;28;20030;-71
2022/01/07 02:47:57;;;;;;;14.10;5.38;;;2.80;99.90;;;;;;5012065;28;20487;-71
2022/01/07 02:50:30;;;;;;;13.13;4.57;;;2.80;99.90;;;;;;5013138;28;20062;-71
2022/01/07 02:52:57;;;;;;;9.63;4.53;;;2.80;99.90;;;;;;5019227;28;20033;-71
2022/01/07 02:55:24;;;;;;;15.73;4.13;;;2.80;99.90;;;;;;5043659;28;20087;-70
2022/01/07 02:57:50;;;;;;;14.57;5.47;;;2.80;99.90;;;;;;5026996;28;20026;-73
2022/01/07 03:00:17;;;;;;;10.23;5.15;;;2.90;99.90;;;;;;5027774;28;20040;-72
2022/01/07 03:02:45;;;;;;;18.70;4.75;;;2.90;99.90;;;;;;5026739;28;20038;-76
2022/01/07 03:05:10;;;;;;;17.45;4.38;;;2.90;99.90;;;;;;5028104;28;20026;-72
2022/01/07 03:07:38;;;;;;;12.90;4.78;;;2.90;99.90;;;;;;5028108;28;20106;-74
2022/01/07 03:10:06;;;;;;;8.45;3.55;;;2.90;99.90;;;;;;5028974;28;20065;-76
2022/01/07 03:12:31;;;;;;;6.55;2.88;;;2.90;99.90;;;;;;5028003;28;20032;-73
2022/01/07 03:14:57;;;;;;;18.27;5.47;;;2.80;99.90;;;;;;5027864;28;20057;-75
2022/01/07 03:17:23;;;;;;;7.47;3.78;;;2.80;99.90;;;;;;5027947;28;20033;-75
2022/01/07 03:19:48;;;;;;;9.15;3.80;;;2.80;99.90;;;;;;5020113;28;20034;-73
2022/01/07 03:22:14;;;;;;;14.98;4.63;;;2.70;99.90;;;;;;5012011;28;20030;-74
2022/01/07 03:24:40;;;;;;;15.05;3.67;;;2.70;99.90;;;;;;5022909;28;20042;-74
2022/01/07 03:27:07;;;;;;;14.05;5.13;;;2.70;99.90;;;;;;5019451;28;20025;-75
2022/01/07 03:29:33;;;;;;;14.25;5.65;;;2.60;99.90;;;;;;5027276;28;20077;-73
2022/01/07 03:31:59;;;;;;;12.20;3.95;;;2.60;99.90;;;;;;5022856;28;20446;-73
2022/01/07 03:34:25;;;;;;;21.02;5.18;;;2.50;99.90;;;;;;5006353;28;20036;-74
2022/01/07 03:36:51;;;;;;;11.88;4.55;;;2.50;99.90;;;;;;5007682;28;20031;-74
2022/01/07 03:39:16;;;;;;;12.05;4.45;;;2.50;99.90;;;;;;5007869;28;20034;-74
2022/01/07 03:41:42;;;;;;;13.75;5.22;;;2.40;99.90;;;;;;5007694;28;20026;-75
2022/01/07 03:44:08;;;;;;;12.32;5.25;;;2.40;99.90;;;;;;5006602;28;20042;-74
2022/01/07 03:46:34;;;;;;;8.25;3.20;;;2.40;99.90;;;;;;5008162;28;20485;-76
2022/01/07 03:48:59;;;;;;;13.00;5.05;;;2.30;99.90;;;;;;5006449;28;20065;-75
2022/01/07 03:51:31;;;;;;;11.32;4.75;;;2.30;99.90;;;;;;5006244;28;20396;-77
2022/01/07 03:53:57;;;;;;;11.68;4.28;;;2.30;99.90;;;;;;5007655;28;20155;-74
2022/01/07 03:56:22;;;;;;;9.63;4.55;;;2.30;99.90;;;;;;5007442;28;20031;-77
2022/01/07 03:58:48;;;;;;;11.38;4.32;;;2.20;99.90;;;;;;5006113;28;20034;-75
2022/01/07 04:01:21;;;;;;;8.57;4.20;;;2.20;99.90;;;;;;5007721;28;20030;-75
2022/01/07 04:03:47;;;;;;;13.88;5.85;;;2.20;99.90;;;;;;5006186;28;20088;-75
2022/01/07 04:06:17;;;;;;;9.88;4.13;;;2.20;99.90;;;;;;5007570;28;20026;-75
2022/01/07 04:08:43;;;;;;;9.40;4.05;;;2.10;99.90;;;;;;5007587;28;20030;-76
2022/01/07 04:11:08;;;;;;;14.63;4.18;;;2.10;99.90;;;;;;5007364;28;20026;-77
2022/01/07 04:13:34;;;;;;;13.80;3.47;;;2.10;99.90;;;;;;5006411;28;20034;-74
2022/01/07 04:15:59;;;;;;;8.32;2.72;;;2.10;99.90;;;;;;5007497;28;20025;-73
2022/01/07 04:18:25;;;;;;;10.40;4.82;;;2.10;99.90;;;;;;5006627;28;20034;-72
2022/01/07 04:20:50;;;;;;;20.10;4.50;;;2.10;99.90;;;;;;5007424;28;20099;-76
2022/01/07 04:23:16;;;;;;;14.23;4.07;;;2.10;99.90;;;;;;5007024;28;20034;-75
2022/01/07 04:25:42;;;;;;;10.48;4.47;;;2.10;99.90;;;;;;5006588;28;20026;-76
2022/01/07 04:28:09;;;;;;;14.48;5.68;;;2.10;99.90;;;;;;5005951;28;20085;-75
2022/01/07 04:30:41;;;;;;;12.52;4.80;;;2.10;99.90;;;;;;5006849;28;20034;-77
2022/01/07 04:33:09;;;;;;;17.45;5.97;;;2.10;99.90;;;;;;5007159;28;20029;-74
2022/01/07 04:35:36;;;;;;;10.82;4.25;;;2.10;99.90;;;;;;5006935;28;20041;-78
2022/01/07 04:38:03;;;;;;;17.35;6.18;;;2.10;99.90;;;;;;5004880;28;20066;-75
2022/01/07 04:40:28;;;;;;;15.23;5.93;;;2.10;99.90;;;;;;5006999;28;20030;-75
2022/01/07 04:42:54;;;;;;;13.57;5.30;;;2.10;99.90;;;;;;5006815;28;20038;-75
2022/01/07 04:45:19;;;;;;;15.05;4.95;;;2.10;99.90;;;;;;5006419;28;20026;-75
2022/01/07 04:47:45;;;;;;;17.88;6.07;;;2.10;99.90;;;;;;5004604;28;20394;-74
2022/01/07 04:50:19;;;;;;;12.50;4.55;;;2.10;99.90;;;;;;5006497;28;20022;-75
2022/01/07 04:52:45;;;;;;;13.63;5.50;;;2.10;99.90;;;;;;5005317;28;20061;-75
2022/01/07 04:55:17;;;;;;;13.07;5.38;;;2.10;99.90;;;;;;5006318;28;20073;-73
2022/01/07 04:57:45;;;;;;;14.98;4.75;;;2.10;99.90;;;;;;5005766;28;20061;-74
2022/01/07 05:00:14;;;;;;;20.50;6.85;;;2.10;99.90;;;;;;5005852;28;20027;-75
2022/01/07 05:02:41;;;;;;;20.55;5.68;;;2.10;99.90;;;;;;5006334;28;20086;-77
2022/01/07 05:05:07;;;;;;;7.88;3.70;;;2.20;99.90;;;;;;5005194;28;20034;-74
2022/01/07 05:07:36;;;;;;;18.17;7.57;;;2.10;99.90;;;;;;5005087;28;20030;-74
2022/01/07 05:10:06;;;;;;;11.43;4.68;;;2.10;99.90;;;;;;5013093;28;20026;-72
2022/01/07 05:12:32;;;;;;;17.13;6.57;;;2.10;99.90;;;;;;5019883;28;20061;-72
2022/01/07 05:14:57;;;;;;;21.70;7.70;;;2.20;99.90;;;;;;5025331;28;20045;-74
2022/01/07 05:17:23;;;;;;;15.90;6.97;;;2.10;99.90;;;;;;5024563;28;20037;-75
2022/01/07 05:19:49;;;;;;;18.38;6.03;;;2.10;99.90;;;;;;5021048;28;20038;-76
2022/01/07 05:22:15;;;;;;;12.02;5.90;;;2.10;99.90;;;;;;5005656;28;20050;-74
2022/01/07 05:24:41;;;;;;;12.98;5.75;;;2.10;99.90;;;;;;5006133;28;20048;-76
2022/01/07 05:27:09;;;;;;;15.98;6.57;;;2.10;99.90;;;;;;5004921;28;20125;-75
2022/01/07 05:29:35;;;;;;;17.38;6.35;;;2.20;99.90;;;;;;5005902;28;20022;-77
2022/01/07 05:32:02;;;;;;;19.50;6.57;;;2.10;99.90;;;;;;5005990;28;20057;-75
2022/01/07 05:34:28;;;;;;;18.15;8.07;;;2.10;99.90;;;;;;5005332;28;20086;-77
2022/01/07 05:36:54;;;;;;;18.38;6.18;;;2.10;99.90;;;;;;5005821;28;20030;-79
2022/01/07 05:39:20;;;;;;;16.13;6.00;;;2.10;99.90;;;;;;5023687;28;20505;-75
2022/01/07 05:41:45;;;;;;;16.08;7.45;;;2.10;99.90;;;;;;5037480;28;20033;-76
2022/01/07 05:44:11;;;;;;;18.50;7.43;;;2.10;99.90;;;;;;5040717;28;20184;-77
2022/01/07 05:46:36;;;;;;;20.55;7.47;;;2.10;99.90;;;;;;5024503;28;20065;-76
2022/01/07 05:49:02;;;;;;;16.50;5.20;;;2.10;99.90;;;;;;5024843;28;20068;-74
2022/01/07 05:51:28;;;;;;;26.00;7.82;;;2.10;99.90;;;;;;5025291;28;20054;-74
2022/01/07 05:53:54;;;;;;;25.73;8.00;;;2.10;99.90;;;;;;5023305;28;20102;-75
2022/01/07 05:56:19;;;;;;;18.75;6.60;;;2.10;99.90;;;;;;5023678;28;20095;-75
2022/01/07 05:58:46;;;;;;;12.73;5.65;;;2.20;99.90;;;;;;5025256;28;20482;-75
2022/01/07 06:01:12;;;;;;;17.08;6.40;;;2.20;99.90;;;;;;5023847;28;20128;-78
2022/01/07 06:03:39;;;;;;;14.63;6.80;;;2.20;99.90;;;;;;5013338;28;20038;-75
2022/01/07 06:06:05;;;;;;;14.80;5.43;;;2.20;99.90;;;;;;5011636;28;20038;-77
2022/01/07 06:08:30;;;;;;;17.90;5.47;;;2.20;99.90;;;;;;5016029;28;20034;-76
2022/01/07 06:10:56;;;;;;;28.25;7.30;;;2.20;99.90;;;;;;5024102;28;20467;-75
2022/01/07 06:13:22;;;;;;;13.48;6.38;;;2.20;99.90;;;;;;5021682;28;20022;-75
2022/01/07 06:15:48;;;;;;;20.45;8.57;;;2.20;99.90;;;;;;5004743;28;20428;-77
2022/01/07 06:18:14;;;;;;;15.50;4.78;;;2.20;99.90;;;;;;5012206;28;20038;-75
2022/01/07 06:20:40;;;;;;;17.75;6.57;;;2.20;99.90;;;;;;5022765;28;20499;-75
2022/01/07 06:23:05;;;;;;;21.75;7.68;;;2.20;99.90;;;;;;5018882;28;20046;-75
2022/01/07 06:25:31;;;;;;;18.02;8.30;;;2.30;99.90;;;;;;5021002;28;20036;-76
2022/01/07 06:27:57;;;;;;;21.17;7.93;;;2.30;99.90;;;;;;5024387;28;20026;-77
2022/01/07 06:30:23;;;;;;;23.85;6.85;;;2.30;99.90;;;;;;5023880;28;20057;-77
2022/01/07 06:32:48;;;;;;;13.68;6.32;;;2.30;99.90;;;;;;5022034;28;20034;-78
2022/01/07 06:35:24;;;;;;;16.45;6.55;;;2.30;99.90;;;;;;5022322;28;20462;-80
2022/01/07 06:37:56;;;;;;;16.23;5.57;;;2.30;99.90;;;;;;5024256;28;20026;-76
2022/01/07 06:40:21;;;;;;;23.20;8.15;;;2.30;99.90;;;;;;5022905;28;20057;-77
2022/01/07 06:42:47;;;;;;;25.05;7.13;;;2.30;99.90;;;;;;5016892;28;20049;-82
2022/01/07 06:45:13;;;;;;;14.02;7.13;;;2.30;99.90;;;;;;5009119;28;20030;-77
2022/01/07 06:47:40;;;;;;;17.60;7.75;;;2.30;99.90;;;;;;5003967;28;20026;-77
2022/01/07 06:50:07;;;;;;;19.23;7.70;;;2.30;99.90;;;;;;5016203;28;20038;-77
2022/01/07 06:52:33;;;;;;;11.25;3.65;;;2.30;99.90;;;;;;5023043;28;20021;-77
2022/01/07 06:54:59;;;;;;;15.52;7.22;;;2.30;99.90;;;;;;5022103;28;20030;-78
2022/01/07 06:57:24;;;;;;;14.05;5.82;;;2.30;99.90;;;;;;5020235;28;20077;-76
2022/01/07 06:59:50;;;;;;;17.73;6.35;;;2.30;99.90;;;;;;5018815;28;20042;-77
2022/01/07 07:02:16;;;;;;;12.45;6.28;;;2.30;99.90;;;;;;5005228;28;20026;-77
2022/01/07 07:04:44;;;;;;;20.42;6.45;;;2.30;99.90;;;;;;5002994;28;20048;-76
2022/01/07 07:07:11;;;;;;;19.92;6.13;;;2.30;99.90;;;;;;5015486;28;20053;-76
2022/01/07 07:09:36;;;;;;;14.57;6.75;;;2.30;99.90;;;;;;5021603;28;20482;-76
2022/01/07 07:12:02;;;;;;;21.40;6.40;;;2.30;99.90;;;;;;5007655;28;20037;-77
2022/01/07 07:14:28;;;;;;;15.45;6.88;;;2.30;99.90;;;;;;5018818;28;20045;-75
2022/01/07 07:16:54;;;;;;;11.93;6.18;;;2.40;99.90;;;;;;5005783;28;20576;-75
2022/01/07 07:19:21;;;;;;;21.27;7.95;;;2.30;99.90;;;;;;5019851;28;20093;-76
2022/01/07 07:21:48;;;;;;;16.73;7.75;;;2.30;99.90;;;;;;5021605;28;20037;-78
2022/01/07 07:24:14;;;;;;;13.68;5.80;;;2.30;99.90;;;;;;5026128;28;20070;-80
2022/01/07 07:26:40;;;;;;;13.23;5.50;;;2.30;99.90;;;;;;5023628;28;20054;-77
2022/01/07 07:29:06;;;;;;;18.42;6.88;;;2.30;99.90;;;;;;5008109;28;20026;-75
2022/01/07 07:31:35;;;;;;;19.75;8.30;;;2.30;99.90;;;;;;5007694;28;20034;-74
2022/01/07 07:36:42;;;;;;;19.25;6.80;;;2.30;99.90;;;;;;5008258;28;20033;-76
2022/01/07 07:39:11;;;;;;;21.00;8.30;;;2.30;99.90;;;;;;5007931;28;20074;-76
2022/01/07 07:41:39;;;;;;;22.58;8.73;;;2.30;99.90;;;;;;5007111;28;20081;-78
2022/01/07 07:44:06;;;;;;;23.25;8.38;;;2.30;99.90;;;;;;5008348;28;20560;-78
2022/01/07 07:46:33;;;;;;;23.52;9.15;;;2.30;99.90;;;;;;5006380;28;20033;-77
2022/01/07 07:49:00;;;;;;;17.55;7.75;;;2.30;99.90;;;;;;5007626;28;20053;-76
2022/01/07 07:51:27;;;;;;;13.20;6.22;;;2.30;99.90;;;;;;5006548;28;20491;-76
2022/01/07 07:53:53;;;;;;;20.88;7.25;;;2.30;99.90;;;;;;5004465;28;20022;-76
2022/01/07 07:56:28;;;;;;;22.98;9.25;;;2.30;99.90;;;;;;5006520;28;20166;-75
2022/01/07 07:59:00;;;;;;;24.70;9.15;;;2.30;99.90;;;;;;5005888;28;20031;-75
2022/01/07 08:01:26;;;;;;;21.52;7.85;;;2.40;99.90;;;;;;5006052;28;20030;-76
2022/01/07 08:03:52;;;;;;;26.75;7.70;;;2.40;99.90;;;;;;5006049;28;20051;-73
2022/01/07 08:06:17;;;;;;;21.48;8.70;;;2.40;99.90;;;;;;5006513;28;20089;-73
2022/01/07 08:08:43;;;;;;;26.00;9.30;;;2.40;99.90;;;;;;5015481;28;20160;-76
2022/01/07 08:11:11;;;;;;;21.08;9.02;;;2.40;99.90;;;;;;5010025;28;20032;-75
2022/01/07 08:16:23;;;;;;;19.17;8.18;;;2.50;99.90;;;;;;5021921;28;20036;-76
2022/01/07 08:18:53;;;;;;;20.48;7.72;;;2.40;99.90;;;;;;5018989;28;22019;-76
2022/01/07 08:21:20;;;;;;;18.98;6.93;;;2.50;99.90;;;;;;5017824;28;20077;-77
2022/01/07 08:23:46;;;;;;;13.15;6.28;;;2.50;99.90;;;;;;5012007;28;20048;-75
2022/01/07 08:26:14;;;;;;;22.77;7.93;;;2.60;99.90;;;;;;5025595;28;20034;-77
2022/01/07 08:28:52;;;;;;;22.23;8.40;;;2.50;99.90;;;;;;5019341;28;20030;-76
2022/01/07 08:36:30;;;;;;;24.92;9.02;;;2.60;99.90;;;;;;5025578;28;20065;-76
2022/01/07 08:38:58;;;;;;;18.50;7.05;;;2.60;99.90;;;;;;5023045;28;20033;-75
2022/01/07 08:41:26;;;;;;;22.25;9.55;;;2.60;99.90;;;;;;5025562;28;20026;-74
2022/01/07 08:43:52;;;;;;;20.42;8.95;;;2.60;99.90;;;;;;5017584;28;20046;-74
2022/01/07 08:46:18;;;;;;;20.65;8.07;;;2.60;99.90;;;;;;5013908;28;20027;-75
2022/01/07 08:48:44;;;;;;;24.40;9.40;;;2.60;99.90;;;;;;5007884;28;20030;-75
2022/01/07 08:51:11;;;;;;;22.52;9.57;;;2.70;99.90;;;;;;5013836;28;20080;-77
2022/01/07 08:53:37;;;;;;;17.05;7.43;;;2.70;99.90;;;;;;5023260;28;20030;-72
2022/01/07 08:56:05;;;;;;;15.45;7.80;;;2.70;99.90;;;;;;5025587;28;20026;-74
2022/01/07 08:58:31;;;;;;;22.02;9.32;;;2.70;99.90;;;;;;5022852;28;20030;-73
2022/01/07 09:00:56;;;;;;;16.60;7.55;;;2.70;99.90;;;;;;5013581;28;20054;-75
2022/01/07 09:03:25;;;;;;;20.55;8.52;;;2.70;99.90;;;;;;5004652;28;20035;-75
2022/01/07 09:05:51;;;;;;;23.13;8.63;;;2.70;99.90;;;;;;5020443;28;20029;-74
2022/01/07 09:08:17;;;;;;;18.88;7.85;;;2.70;99.90;;;;;;5028945;28;20484;-77
2022/01/07 09:10:44;;;;;;;19.13;7.47;;;2.80;99.90;;;;;;5024110;28;20036;-75
2022/01/07 09:13:11;;;;;;;17.20;5.60;;;2.80;99.90;;;;;;5024327;28;20030;-75
2022/01/07 09:15:39;;;;;;;20.50;8.75;;;2.80;99.90;;;;;;5024678;28;20117;-76
2022/01/07 09:18:12;;;;;;;24.13;9.35;;;2.80;99.90;;;;;;5032973;28;20026;-75
2022/01/07 09:20:42;;;;;;;22.73;6.70;;;2.80;99.90;;;;;;5032711;28;20403;-76
2022/01/07 09:23:08;;;;;;;23.75;9.85;;;2.80;99.90;;;;;;5006477;28;20042;-78
2022/01/07 09:25:38;;;;;;;32.15;10.98;;;2.80;99.90;;;;;;5019978;28;20030;-75
2022/01/07 09:28:05;;;;;;;21.58;9.27;;;2.80;99.90;;;;;;5022517;28;20120;-76
2022/01/07 09:30:32;;;;;;;20.10;8.43;;;2.90;99.90;;;;;;5018542;28;20031;-76
2022/01/07 09:33:01;;;;;;;31.10;9.52;;;2.90;99.90;;;;;;5018118;28;20049;-77
2022/01/07 09:35:37;;;;;;;17.08;7.50;;;2.90;99.90;;;;;;5021860;28;20033;-75
2022/01/07 09:38:05;;;;;;;21.52;9.57;;;2.90;99.90;;;;;;5025094;28;21090;-74
2022/01/07 09:40:31;;;;;;;25.05;9.60;;;2.90;99.90;;;;;;5023785;28;20030;-78
2022/01/07 09:43:03;;;;;;;26.00;8.48;;;3.00;99.90;;;;;;5019141;28;20109;-77
2022/01/07 09:45:39;;;;;;;17.83;7.93;;;3.00;99.90;;;;;;5005601;28;20081;-77
2022/01/07 09:48:05;;;;;;;20.58;8.60;;;3.00;99.90;;;;;;5005909;28;20562;-74
2022/01/07 09:50:33;;;;;;;17.80;8.65;;;3.00;99.90;;;;;;5023135;28;20129;-78
2022/01/07 09:53:15;;;;;;;32.25;10.88;;;3.00;99.90;;;;;;5013947;28;20063;-76
2022/01/07 09:55:45;;;;;;;28.40;9.63;;;3.00;99.90;;;;;;5011744;28;20027;-77
2022/01/07 09:58:13;;;;;;;26.50;9.73;;;3.10;99.90;;;;;;5010171;28;20455;-75
2022/01/07 10:00:44;;;;;;;20.40;7.38;;;3.10;99.90;;;;;;5020497;28;20025;-77
2022/01/07 10:03:16;;;;;;;21.52;9.43;;;3.10;99.90;;;;;;5007530;28;20105;-77
2022/01/07 10:05:49;;;;;;;25.92;8.52;;;3.10;99.90;;;;;;5007977;28;20034;-76
2022/01/07 10:08:27;;;;;;;28.05;9.90;;;3.20;99.90;;;;;;5008149;28;20093;-75
2022/01/07 10:11:20;;;;;;;19.65;7.35;;;3.10;99.90;;;;;;5022190;28;20034;-77
2022/01/07 10:14:11;;;;;;;24.48;9.48;;;3.20;99.90;;;;;;5004149;28;20035;-77
2022/01/07 10:16:51;;;;;;;19.60;8.57;;;3.20;99.90;;;;;;5007807;28;20033;-75
2022/01/07 10:19:35;;;;;;;17.50;6.95;;;3.20;99.90;;;;;;5035537;28;20451;-77
2022/01/07 10:22:07;;;;;;;28.63;8.85;;;3.30;99.90;;;;;;5005154;28;20035;-75
2022/01/07 10:25:00;;;;;;;13.77;6.30;;;3.30;99.90;;;;;;5019405;28;20073;-75
2022/01/07 10:27:46;;;;;;;22.98;9.65;;;3.30;99.90;;;;;;5019601;28;20033;-77
2022/01/07 10:30:16;;;;;;;20.13;7.82;;;3.40;99.90;;;;;;5024149;28;20042;-77
2022/01/07 10:32:45;;;;;;;25.83;10.18;;;3.30;99.90;;;;;;5023552;28;20026;-77
2022/01/07 10:35:18;;;;;;;19.05;8.75;;;3.40;99.90;;;;;;5024612;28;20415;-75
2022/01/07 10:37:54;;;;;;;19.73;9.02;;;3.40;99.90;;;;;;5024127;28;20032;-76
2022/01/07 10:40:26;;;;;;;20.60;8.00;;;3.50;99.90;;;;;;5023823;28;20100;-74
2022/01/07 10:42:55;;;;;;;25.50;9.50;;;3.50;99.90;;;;;;5023948;28;20041;-76
2022/01/07 10:45:21;;;;;;;24.17;8.60;;;3.50;99.90;;;;;;5024207;28;20050;-75
2022/01/07 10:47:52;;;;;;;28.92;10.15;;;3.60;99.90;;;;;;5021921;28;20386;-75
2022/01/07 10:50:23;;;;;;;20.25;7.95;;;3.60;99.90;;;;;;5022049;28;20042;-75
2022/01/07 10:52:50;;;;;;;20.95;8.20;;;3.60;99.90;;;;;;5022133;28;20070;-79
2022/01/07 10:55:21;;;;;;;30.10;10.00;;;3.60;99.90;;;;;;5015785;28;20032;-75
2022/01/07 10:57:51;;;;;;;25.30;9.75;;;3.60;99.90;;;;;;5020377;28;20038;-77
2022/01/07 11:00:19;;;;;;;16.58;6.47;;;3.60;99.90;;;;;;5027122;28;20041;-75
2022/01/07 11:02:47;;;;;;;23.58;8.93;;;3.60;99.90;;;;;;5017193;28;20058;-75
2022/01/07 11:05:14;;;;;;;20.75;7.88;;;3.70;99.90;;;;;;5028018;28;20026;-75
2022/01/07 11:07:42;;;;;;;19.08;6.88;;;3.70;99.90;;;;;;5026039;28;20083;-76
2022/01/07 11:10:10;;;;;;;19.73;7.22;;;3.70;99.90;;;;;;5028006;28;20089;-76
2022/01/07 11:12:36;;;;;;;23.90;8.27;;;3.70;99.90;;;;;;5026362;28;20041;-75
2022/01/07 11:15:05;;;;;;;20.33;8.68;;;3.70;99.90;;;;;;5025924;28;20025;-76
2022/01/07 11:17:31;;;;;;;19.77;7.78;;;3.80;99.90;;;;;;5027390;28;20030;-78
2022/01/07 11:20:02;;;;;;;19.52;7.90;;;3.80;99.90;;;;;;5025779;28;20030;-74
2022/01/07 11:22:28;;;;;;;23.25;8.32;;;3.80;99.90;;;;;;5015849;28;20030;-75
2022/01/07 11:24:59;;;;;;;23.08;8.77;;;3.80;99.90;;;;;;5011716;28;20041;-74
2022/01/07 11:27:44;;;;;;;22.20;8.02;;;3.80;99.90;;;;;;5018943;28;20476;-76
2022/01/07 11:30:13;;;;;;;24.50;8.13;;;3.90;99.90;;;;;;5026974;28;20038;-76
2022/01/07 11:32:53;;;;;;;18.52;7.70;;;3.90;99.90;;;;;;5048453;28;20381;-76
2022/01/07 11:35:22;;;;;;;19.10;8.40;;;3.90;99.90;;;;;;5040616;28;20076;-76
2022/01/07 11:37:56;;;;;;;20.10;8.00;;;4.00;99.90;;;;;;5016193;28;20026;-74
2022/01/07 11:40:31;;;;;;;18.48;8.23;;;3.90;99.90;;;;;;5023724;28;20031;-74
2022/01/07 11:43:01;;;;;;;19.83;8.40;;;3.90;99.90;;;;;;5005904;28;20033;-75
2022/01/07 11:45:29;;;;;;;21.50;7.47;;;3.90;99.90;;;;;;5016790;28;20030;-76
2022/01/07 11:48:04;;;;;;;19.60;8.15;;;4.00;99.90;;;;;;5025288;28;20108;-76
2022/01/07 11:50:30;;;;;;;21.30;7.40;;;4.00;99.90;;;;;;5029188;28;20064;-76
2022/01/07 11:53:00;;;;;;;19.23;8.68;;;4.00;99.90;;;;;;5029410;28;20086;-73
2022/01/07 11:55:30;;;;;;;23.67;8.73;;;4.00;99.90;;;;;;5026752;28;20030;-76
2022/01/07 11:58:01;;;;;;;27.13;9.27;;;4.00;99.90;;;;;;5026599;28;20037;-75
2022/01/07 12:01:00;;;;;;;22.58;8.00;;;4.00;99.90;;;;;;5019293;28;20031;-77
2022/01/07 12:03:30;;;;;;;25.70;9.77;;;4.10;99.90;;;;;;5006789;28;20062;-75
2022/01/07 12:05:56;;;;;;;18.88;6.10;;;4.10;99.90;;;;;;5004333;28;20550;-74
2022/01/07 12:08:41;;;;;;;22.42;8.65;;;4.10;99.90;;;;;;5007208;28;20026;-73
2022/01/07 12:11:09;;;;;;;46.65;8.70;;;4.20;99.90;;;;;;5006852;28;20092;-73
2022/01/07 12:13:39;;;;;;;23.60;9.60;;;4.20;99.90;;;;;;5014848;28;20021;-77
2022/01/07 12:16:13;;;;;;;20.70;8.10;;;4.30;99.90;;;;;;5025716;28;20038;-74
2022/01/07 12:18:41;;;;;;;20.90;9.25;;;4.30;99.90;;;;;;5024980;28;20038;-77
2022/01/07 12:21:06;;;;;;;31.67;10.75;;;4.40;99.90;;;;;;5041774;28;20080;-74
2022/01/07 12:23:32;;;;;;;22.83;8.55;;;4.40;99.90;;;;;;5016467;28;20609;-73
2022/01/07 12:26:03;;;;;;;20.75;8.25;;;4.40;99.90;;;;;;5011364;28;20023;-73
2022/01/07 12:28:34;;;;;;;14.18;5.82;;;4.50;99.90;;;;;;5040359;28;20118;-74
2022/01/07 12:31:09;;;;;;;12.52;6.03;;;4.60;99.90;;;;;;5011313;28;20096;-75
2022/01/07 12:33:38;;;;;;;19.45;7.70;;;4.60;99.90;;;;;;5019018;28;20109;-76
2022/01/07 12:36:05;;;;;;;21.33;7.53;;;4.60;99.90;;;;;;5006941;28;20451;-76
2022/01/07 12:38:30;;;;;;;14.13;6.47;;;4.70;99.90;;;;;;5024160;28;20041;-77
2022/01/07 12:41:00;;;;;;;21.70;8.02;;;4.80;99.90;;;;;;5023942;28;20538;-75
2022/01/07 12:43:34;;;;;;;19.52;7.80;;;4.70;99.90;;;;;;5024274;28;20064;-80
2022/01/07 12:46:03;;;;;;;13.63;6.85;;;4.70;99.90;;;;;;5011202;28;20041;-73
2022/01/07 12:48:38;;;;;;;14.80;6.28;;;4.70;99.90;;;;;;5013065;28;20172;-73
2022/01/07 12:51:05;;;;;;;21.25;6.95;;;4.70;99.90;;;;;;5025305;28;20053;-74
2022/01/07 12:53:31;;;;;;;17.52;6.88;;;4.80;99.90;;;;;;5023702;28;20040;-74
2022/01/07 12:56:20;;;;;;;17.17;6.13;;;4.80;99.90;;;;;;5025430;28;20028;-74
2022/01/07 12:58:45;;;;;;;23.52;8.32;;;4.80;99.90;;;;;;5015186;28;20023;-77
2022/01/07 13:01:30;;;;;;;15.60;5.38;;;4.80;99.90;;;;;;5013086;28;20034;-77
2022/01/07 13:04:11;;;;;;;18.38;7.13;;;4.80;99.90;;;;;;5020238;28;20100;-75